Time;durP1;ratioP1;P1;durP2;ratioP2;P2;SDS_P1;SDS_P2;PMS_P1;PMS_P2;Temp;Humidity;BMP_temperature;BMP_pressure;BME280_temperature;BME280_humidity;BME280_pressure;Samples;Min_cycle;Max_cycle;Signal;HPM_P1;HPM_P2
2023/10/25 00:00:36;;;;;;;50.53;47.92;;;;;;;14.74;100.00;100360.69;5022070;28;20061;-77
2023/10/25 00:03:10;;;;;;;37.42;35.63;;;;;;;14.56;100.00;100367.06;5029024;28;20058;-77
2023/10/25 00:05:40;;;;;;;39.03;37.03;;;;;;;14.38;100.00;100350.16;5011900;28;20479;-77
2023/10/25 00:08:15;;;;;;;43.00;40.90;;;;;;;14.32;100.00;100344.97;5023080;28;20434;-77
2023/10/25 00:10:48;;;;;;;33.88;32.13;;;;;;;14.39;100.00;100350.97;5020074;28;20077;-73
2023/10/25 00:13:15;;;;;;;31.27;29.48;;;;;;;14.22;100.00;100356.28;5014703;28;20046;-74
2023/10/25 00:15:44;;;;;;;36.45;34.45;;;;;;;14.14;100.00;100349.44;5011682;28;20442;-77
2023/10/25 00:18:24;;;;;;;32.65;30.88;;;;;;;14.16;100.00;100333.16;5018500;28;20045;-77
2023/10/25 00:20:52;;;;;;;32.80;31.10;;;;;;;14.12;100.00;100332.84;5017346;28;20105;-77
2023/10/25 00:23:19;;;;;;;28.45;26.65;;;;;;;13.88;100.00;100328.63;5018316;28;20503;-77
2023/10/25 00:25:46;;;;;;;34.28;32.38;;;;;;;13.62;100.00;100328.13;5022392;28;20042;-77
2023/10/25 00:28:38;;;;;;;32.92;31.00;;;;;;;13.58;100.00;100329.63;5023635;28;20056;-77
2023/10/25 00:31:06;;;;;;;37.33;35.42;;;;;;;13.60;100.00;100330.22;5023792;28;20057;-77
2023/10/25 00:33:34;;;;;;;33.85;31.98;;;;;;;13.58;100.00;100329.63;5028437;28;20045;-77
2023/10/25 00:36:01;;;;;;;35.17;33.28;;;;;;;13.79;100.00;100338.06;5011629;28;20065;-77
2023/10/25 00:38:28;;;;;;;32.35;30.40;;;;;;;13.91;100.00;100326.28;5018610;28;20077;-77
2023/10/25 00:40:59;;;;;;;32.60;30.60;;;;;;;13.85;100.00;100313.09;5017601;28;20502;-77
2023/10/25 00:43:26;;;;;;;36.88;34.78;;;;;;;13.76;100.00;100307.31;5023009;28;20045;-77
2023/10/25 00:46:18;;;;;;;32.20;30.30;;;;;;;13.35;100.00;100317.16;5028816;28;20148;-77
2023/10/25 00:48:48;;;;;;;33.97;32.08;;;;;;;13.45;100.00;100304.03;5008317;28;20055;-77
2023/10/25 00:51:17;;;;;;;39.33;37.22;;;;;;;13.55;100.00;100311.41;5017945;28;20052;-77
2023/10/25 00:53:48;;;;;;;34.33;32.33;;;;;;;13.48;100.00;100308.09;5018113;28;20042;-77
2023/10/25 00:56:16;;;;;;;28.52;26.73;;;;;;;13.59;100.00;100309.13;5026299;28;20582;-77
2023/10/25 00:58:45;;;;;;;33.95;31.95;;;;;;;13.63;100.00;100312.94;5027821;28;20059;-77
2023/10/25 01:01:15;;;;;;;37.22;35.22;;;;;;;13.68;100.00;100299.69;5022685;28;20823;-77
2023/10/25 01:03:47;;;;;;;36.67;34.58;;;;;;;13.48;100.00;100298.22;5025622;28;20049;-73
2023/10/25 01:06:23;;;;;;;33.53;31.42;;;;;;;13.46;100.00;100297.66;5023120;28;20415;-77
2023/10/25 01:08:50;;;;;;;31.38;29.48;;;;;;;13.55;100.00;100300.75;5019030;28;20050;-77
2023/10/25 01:11:17;;;;;;;32.78;30.98;;;;;;;13.65;100.00;100295.63;5019777;28;20046;-77
2023/10/25 01:13:44;;;;;;;38.90;36.80;;;;;;;13.65;100.00;100300.97;5025690;28;20890;-77
2023/10/25 01:16:11;;;;;;;37.63;35.47;;;;;;;13.64;100.00;100294.00;5024152;28;20050;-73
2023/10/25 01:18:38;;;;;;;27.48;25.77;;;;;;;13.63;100.00;100296.91;5024446;28;20527;-73
2023/10/25 01:21:06;;;;;;;27.92;26.23;;;;;;;13.59;100.00;100304.59;5025813;28;20046;-77
2023/10/25 01:23:35;;;;;;;29.83;28.17;;;;;;;13.52;100.00;100310.06;5026303;28;20566;-77
2023/10/25 01:26:01;;;;;;;29.13;27.42;;;;;;;13.55;100.00;100313.28;5019595;28;20068;-77
2023/10/25 01:28:28;;;;;;;29.17;27.58;;;;;;;13.64;100.00;100311.88;5019432;28;20049;-77
2023/10/25 01:30:55;;;;;;;32.10;30.40;;;;;;;13.57;100.00;100304.00;5024691;28;20065;-77
2023/10/25 01:33:22;;;;;;;31.50;29.70;;;;;;;13.49;100.00;100307.03;5021594;28;20049;-77
2023/10/25 01:35:49;;;;;;;29.95;28.25;;;;;;;13.69;100.00;100302.13;5027420;28;20056;-78
2023/10/25 01:38:16;;;;;;;38.92;37.00;;;;;;;13.66;100.00;100299.13;5011358;28;20431;-78
2023/10/25 01:40:55;;;;;;;38.40;36.40;;;;;;;13.61;100.00;100309.66;5016514;28;20434;-79
2023/10/25 01:43:21;;;;;;;33.35;31.55;;;;;;;13.53;100.00;100310.88;5020881;28;20061;-75
2023/10/25 01:45:48;;;;;;;31.30;29.60;;;;;;;13.49;100.00;100304.34;5021067;28;20050;-78
2023/10/25 01:48:15;;;;;;;33.45;31.55;;;;;;;13.36;100.00;100296.63;5015362;28;20056;-75
2023/10/25 01:50:44;;;;;;;31.23;29.33;;;;;;;13.33;100.00;100286.41;5010908;28;20053;-75
2023/10/25 01:53:11;;;;;;;28.05;26.35;;;;;;;13.47;100.00;100280.59;5014884;28;20057;-75
2023/10/25 01:55:41;;;;;;;25.40;23.70;;;;;;;13.46;100.00;100283.47;5019127;28;20065;-75
2023/10/25 01:58:09;;;;;;;28.15;26.45;;;;;;;13.31;100.00;100281.31;5025245;28;20052;-75
2023/10/25 02:00:41;;;;;;;42.25;40.03;;;;;;;13.35;100.00;100285.16;5017311;28;20519;-75
2023/10/25 02:03:08;;;;;;;43.53;41.33;;;;;;;13.51;100.00;100279.06;5013964;28;20403;-75
2023/10/25 02:05:34;;;;;;;37.22;35.20;;;;;;;13.36;100.00;100283.28;5015622;28;20801;-76
2023/10/25 02:08:01;;;;;;;43.67;41.58;;;;;;;13.55;100.00;100274.06;5022715;28;20132;-78
2023/10/25 02:10:28;;;;;;;44.88;42.67;;;;;;;13.50;100.00;100273.97;5014153;28;20050;-78
2023/10/25 02:12:55;;;;;;;35.65;33.75;;;;;;;13.39;100.00;100275.63;5027121;28;20041;-78
2023/10/25 02:15:23;;;;;;;34.95;32.75;;;;;;;13.23;100.00;100274.47;5025515;28;20041;-78
2023/10/25 02:17:50;;;;;;;31.85;29.85;;;;;;;13.15;100.00;100282.00;5015951;28;20045;-78
2023/10/25 02:20:17;;;;;;;29.58;27.70;;;;;;;13.32;100.00;100287.47;5025956;28;20050;-78
2023/10/25 02:22:44;;;;;;;42.72;40.53;;;;;;;13.15;100.00;100293.47;5016444;28;20053;-75
2023/10/25 02:25:13;;;;;;;33.28;31.38;;;;;;;13.10;100.00;100287.22;5017766;28;20420;-75
2023/10/25 02:27:40;;;;;;;32.30;30.55;;;;;;;13.12;100.00;100277.94;5025020;28;20049;-75
2023/10/25 02:30:13;;;;;;;40.45;38.25;;;;;;;12.93;100.00;100274.59;5022331;28;20037;-78
2023/10/25 02:32:47;;;;;;;34.47;32.47;;;;;;;12.89;100.00;100268.13;5023610;28;20057;-79
2023/10/25 02:35:20;;;;;;;34.42;32.42;;;;;;;12.81;100.00;100260.44;5023378;28;20049;-79
2023/10/25 02:37:47;;;;;;;29.42;27.83;;;;;;;12.55;100.00;100262.50;5020426;28;20060;-78
2023/10/25 02:40:13;;;;;;;34.35;32.45;;;;;;;12.57;100.00;100259.63;5020903;28;20049;-78
2023/10/25 02:42:46;;;;;;;38.83;36.63;;;;;;;12.65;100.00;100258.47;5021418;28;20049;-79
2023/10/25 02:45:18;;;;;;;34.25;32.50;;;;;;;12.74;100.00;100262.44;5019365;28;20168;-78
2023/10/25 02:47:45;;;;;;;28.03;26.40;;;;;;;12.63;100.00;100268.56;5022516;28;20490;-78
2023/10/25 02:50:16;;;;;;;32.30;30.40;;;;;;;12.60;100.00;100267.16;5022092;28;20053;-78
2023/10/25 02:52:46;;;;;;;26.67;24.98;;;;;;;12.48;100.00;100267.13;5014589;28;20054;-75
2023/10/25 02:55:13;;;;;;;24.98;23.38;;;;;;;12.21;100.00;100279.22;5030496;28;20865;-78
2023/10/25 02:57:40;;;;;;;26.27;24.67;;;;;;;12.30;100.00;100276.00;5042580;28;20511;-78
2023/10/25 03:00:10;;;;;;;26.10;24.50;;;;;;;12.42;100.00;100277.91;5039356;28;20050;-78
2023/10/25 03:02:37;;;;;;;28.52;26.83;;;;;;;12.60;100.00;100275.16;5012934;28;20062;-79
2023/10/25 03:05:04;;;;;;;27.30;25.70;;;;;;;11.97;100.00;100281.00;5022588;28;20053;-78
2023/10/25 03:07:32;;;;;;;20.75;19.55;;;;;;;12.03;100.00;100288.09;5023596;28;20502;-78
2023/10/25 03:09:59;;;;;;;25.67;24.17;;;;;;;12.28;100.00;100287.94;5028435;28;20057;-78
2023/10/25 03:12:26;;;;;;;23.65;22.15;;;;;;;12.56;100.00;100279.31;5029245;28;20053;-78
2023/10/25 03:14:53;;;;;;;29.83;28.02;;;;;;;12.32;100.00;100273.94;5023036;28;20434;-79
2023/10/25 03:17:20;;;;;;;25.70;24.20;;;;;;;12.47;100.00;100278.84;5019157;28;20054;-78
2023/10/25 03:19:47;;;;;;;28.75;27.05;;;;;;;12.61;100.00;100261.59;5020648;28;20582;-77
2023/10/25 03:22:23;;;;;;;23.85;22.45;;;;;;;12.76;100.00;100249.66;5022430;28;20041;-77
2023/10/25 03:24:51;;;;;;;25.80;24.42;;;;;;;12.79;100.00;100242.00;5024614;28;20050;-77
2023/10/25 03:27:18;;;;;;;27.17;25.67;;;;;;;12.54;100.00;100244.09;5022985;28;20526;-77
2023/10/25 03:29:48;;;;;;;27.65;26.05;;;;;;;12.68;100.00;100218.88;5017244;28;20058;-77
2023/10/25 03:32:15;;;;;;;29.40;27.80;;;;;;;12.43;100.00;100216.41;5029044;28;20057;-77
2023/10/25 03:34:43;;;;;;;25.85;24.45;;;;;;;11.73;100.00;100234.81;5019295;28;20064;-77
2023/10/25 03:37:10;;;;;;;24.63;23.23;;;;;;;12.03;100.00;100250.81;5017739;28;20422;-73
2023/10/25 03:39:37;;;;;;;26.15;24.65;;;;;;;12.63;100.00;100250.72;5027899;28;20442;-73
2023/10/25 03:42:05;;;;;;;24.05;22.55;;;;;;;12.85;100.00;100248.28;5030623;28;20126;-77
2023/10/25 03:44:35;;;;;;;22.45;21.25;;;;;;;12.88;100.00;100245.16;5028964;28;20053;-76
2023/10/25 03:47:03;;;;;;;26.98;25.67;;;;;;;12.86;100.00;100238.44;5025819;28;20412;-77
2023/10/25 03:49:30;;;;;;;29.23;27.73;;;;;;;12.73;100.00;100237.63;5015185;28;20041;-76
2023/10/25 03:51:57;;;;;;;27.40;26.10;;;;;;;12.61;100.00;100232.28;5026735;28;20064;-73
2023/10/25 03:54:24;;;;;;;26.15;24.80;;;;;;;12.62;100.00;100222.47;5030119;28;20426;-73
2023/10/25 03:56:51;;;;;;;25.25;23.95;;;;;;;12.87;100.00;100200.91;5028041;28;20045;-73
2023/10/25 03:59:19;;;;;;;25.02;23.73;;;;;;;12.96;100.00;100206.69;5022805;28;20058;-72
2023/10/25 04:02:00;;;;;;;25.75;23.55;;;;;;;12.68;100.00;100202.03;5014391;28;20132;-73
2023/10/25 04:04:27;;;;;;;31.05;28.13;;;;;;;12.65;100.00;100200.69;5023641;28;20062;-73
2023/10/25 04:06:54;;;;;;;23.10;21.20;;;;;;;12.42;100.00;100206.78;5019433;28;20053;-73
2023/10/25 04:09:21;;;;;;;21.48;19.27;;;;;;;12.32;100.00;100220.69;5014037;28;20483;-73
2023/10/25 04:11:48;;;;;;;23.73;21.92;;;;;;;12.20;100.00;100222.50;5013647;28;20050;-72
2023/10/25 04:14:32;;;;;;;21.45;20.35;;;;;;;12.56;100.00;100232.19;5024885;28;20112;-73
2023/10/25 04:16:59;;;;;;;20.25;19.15;;;;;;;12.27;100.00;100225.06;5032204;28;20056;-73
2023/10/25 04:19:26;;;;;;;25.58;24.23;;;;;;;12.59;100.00;100244.22;5022468;28;20045;-74
2023/10/25 04:21:53;;;;;;;22.25;20.95;;;;;;;12.65;100.00;100243.31;5035323;28;20057;-73
2023/10/25 04:24:20;;;;;;;22.00;20.70;;;;;;;12.67;100.00;100243.88;5025673;28;20042;-72
2023/10/25 04:26:46;;;;;;;28.33;26.83;;;;;;;12.73;100.00;100228.81;5033330;28;20041;-72
2023/10/25 04:29:15;;;;;;;30.77;29.10;;;;;;;12.73;100.00;100232.28;5028031;28;20041;-75
2023/10/25 04:31:44;;;;;;;39.80;37.78;;;;;;;12.17;100.00;100238.13;5010979;28;20813;-74
2023/10/25 04:34:11;;;;;;;32.03;30.63;;;;;;;12.46;100.00;100228.44;5029307;28;20049;-75
2023/10/25 04:36:38;;;;;;;32.05;30.55;;;;;;;12.58;100.00;100230.06;5033605;28;20041;-78
2023/10/25 04:39:07;;;;;;;27.25;25.95;;;;;;;12.57;100.00;100228.47;5038501;28;20052;-78
2023/10/25 04:41:41;;;;;;;32.65;30.10;;;;;;;12.62;100.00;100227.78;5019688;28;20500;-78
2023/10/25 04:44:14;;;;;;;32.97;31.38;;;;;;;12.50;100.00;100237.63;5025262;28;20041;-78
2023/10/25 04:46:41;;;;;;;;;;;;;;;12.52;100.00;100240.84;5013495;28;20467;-78
2023/10/25 04:49:09;;;;;;;23.65;22.25;;;;;;;12.46;100.00;100237.25;5026113;28;19921;-75
2023/10/25 04:51:36;;;;;;;22.75;21.45;;;;;;;12.27;100.00;100231.19;5019875;28;20442;-74
2023/10/25 04:54:03;;;;;;;23.02;21.63;;;;;;;12.34;100.00;100221.28;5026105;28;20057;-74
2023/10/25 04:56:35;;;;;;;22.85;21.55;;;;;;;12.35;100.00;100214.09;5021118;28;20539;-74
2023/10/25 04:59:02;;;;;;;22.85;21.38;;;;;;;12.37;100.00;100210.16;5026300;28;20045;-75
2023/10/25 05:01:29;;;;;;;22.30;20.83;;;;;;;12.25;100.00;100201.31;5027162;28;20061;-75
2023/10/25 05:03:56;;;;;;;22.73;21.33;;;;;;;11.84;100.00;100194.97;5029064;28;20050;-74
2023/10/25 05:06:25;;;;;;;22.42;21.13;;;;;;;11.34;100.00;100200.50;5023543;28;20065;-76
2023/10/25 05:08:52;;;;;;;18.75;17.55;;;;;;;11.54;100.00;100197.63;5013167;28;20060;-75
2023/10/25 05:11:24;;;;;;;21.55;20.25;;;;;;;12.06;100.00;100189.94;5038028;28;20045;-75
2023/10/25 05:13:52;;;;;;;22.40;20.98;;;;;;;12.20;100.00;100179.91;5031808;28;20053;-75
2023/10/25 05:16:19;;;;;;;25.05;23.33;;;;;;;11.71;100.00;100192.50;5029164;28;20426;-75
2023/10/25 05:18:48;;;;;;;21.25;19.98;;;;;;;11.66;100.00;100187.03;5029813;28;20424;-75
2023/10/25 05:21:19;;;;;;;21.90;20.60;;;;;;;12.02;100.00;100199.44;5039048;28;20443;-75
2023/10/25 05:23:50;;;;;;;22.08;20.88;;;;;;;12.26;100.00;100197.63;5040085;28;20087;-75
2023/10/25 05:26:19;;;;;;;23.00;21.23;;;;;;;12.26;100.00;100200.31;5020569;28;20147;-75
2023/10/25 05:28:46;;;;;;;23.08;21.88;;;;;;;12.29;100.00;100197.19;5026277;28;20073;-75
2023/10/25 05:31:18;;;;;;;23.65;22.25;;;;;;;12.49;100.00;100204.81;5027316;28;20077;-78
2023/10/25 05:33:45;;;;;;;25.15;23.60;;;;;;;12.63;100.00;100194.75;5041187;28;20068;-78
2023/10/25 05:36:14;;;;;;;24.15;22.85;;;;;;;12.72;100.00;100188.03;5040504;28;20053;-78
2023/10/25 05:38:43;;;;;;;40.67;24.73;;;;;;;12.60;100.00;100182.72;5025199;28;20049;-78
2023/10/25 05:41:19;;;;;;;23.30;21.58;;;;;;;12.73;100.00;100187.00;5023615;28;20073;-78
2023/10/25 05:43:55;;;;;;;23.23;21.73;;;;;;;12.80;100.00;100176.22;5032562;28;20050;-78
2023/10/25 05:46:22;;;;;;;22.95;21.45;;;;;;;12.68;100.00;100178.06;5024951;28;20080;-79
2023/10/25 05:48:50;;;;;;;24.15;22.55;;;;;;;12.79;100.00;100172.72;5018033;28;20042;-79
2023/10/25 05:51:17;;;;;;;23.15;21.65;;;;;;;13.10;100.00;100168.06;5026228;28;20057;-77
2023/10/25 05:53:47;;;;;;;24.40;22.95;;;;;;;12.99;100.00;100152.91;5024530;28;20050;-78
2023/10/25 05:56:17;;;;;;;21.90;20.63;;;;;;;13.31;100.00;100155.16;5019809;28;20068;-79
2023/10/25 05:58:50;;;;;;;21.45;20.15;;;;;;;13.39;100.00;100146.78;5040609;28;20713;-78
2023/10/25 06:01:26;;;;;;;23.85;22.02;;;;;;;13.44;100.00;100149.56;5031571;28;20040;-79
2023/10/25 06:03:57;;;;;;;22.50;21.00;;;;;;;13.87;100.00;100156.19;5021895;28;20133;-79
2023/10/25 06:06:31;;;;;;;23.13;21.58;;;;;;;14.28;100.00;100152.31;5020503;28;20053;-79
2023/10/25 06:08:58;;;;;;;24.60;22.70;;;;;;;14.50;100.00;100149.69;5017901;28;20136;-79
2023/10/25 06:11:27;;;;;;;24.75;23.05;;;;;;;14.53;100.00;100151.09;5031981;28;20046;-80
2023/10/25 06:14:01;;;;;;;24.33;22.65;;;;;;;14.89;100.00;100139.03;5030635;28;20462;-75
2023/10/25 06:16:28;;;;;;;27.77;25.25;;;;;;;15.50;100.00;100131.69;5020363;28;20050;-75
2023/10/25 06:18:55;;;;;;;22.30;20.80;;;;;;;16.05;100.00;100150.41;5022186;28;20427;-76
2023/10/25 06:21:22;;;;;;;28.98;22.70;;;;;;;16.37;100.00;100148.53;5027750;28;20446;-76
2023/10/25 06:23:51;;;;;;;24.35;22.85;;;;;;;16.72;100.00;100145.22;5023814;28;20056;-76
2023/10/25 06:26:18;;;;;;;23.60;22.10;;;;;;;16.94;100.00;100142.44;5028670;28;20445;-76
2023/10/25 06:28:46;;;;;;;25.67;23.67;;;;;;;17.21;100.00;100129.91;5031300;28;20046;-79
2023/10/25 06:31:14;;;;;;;22.50;21.00;;;;;;;17.53;100.00;100129.72;5024333;28;20055;-76
2023/10/25 06:33:41;;;;;;;22.23;20.83;;;;;;;17.49;100.00;100137.50;5026713;28;20481;-76
2023/10/25 06:36:09;;;;;;;24.50;22.55;;;;;;;17.84;100.00;100139.44;5027255;28;20049;-76
2023/10/25 06:38:37;;;;;;;26.45;24.75;;;;;;;17.59;100.00;100139.41;5014177;28;20046;-76
2023/10/25 06:41:04;;;;;;;23.70;22.20;;;;;;;17.96;100.00;100146.44;5025959;28;20053;-73
2023/10/25 06:43:32;;;;;;;25.85;23.90;;;;;;;18.05;100.00;100147.50;5019256;28;20046;-74
2023/10/25 06:46:03;;;;;;;25.20;23.70;;;;;;;18.20;100.00;100155.56;5019868;28;20140;-73
2023/10/25 06:48:30;;;;;;;26.92;25.40;;;;;;;18.57;100.00;100161.69;5017055;28;20053;-73
2023/10/25 06:50:58;;;;;;;24.80;23.38;;;;;;;18.34;100.00;100169.28;5021605;28;20419;-74
2023/10/25 06:53:26;;;;;;;24.50;23.17;;;;;;;18.61;100.00;100168.13;5018501;28;20056;-73
2023/10/25 06:56:01;;;;;;;24.48;23.08;;;;;;;18.81;100.00;100153.88;5024920;28;20049;-73
2023/10/25 06:58:28;;;;;;;24.55;23.13;;;;;;;18.93;100.00;100144.41;5014702;28;20057;-74
2023/10/25 07:00:57;;;;;;;26.55;24.75;;;;;;;19.44;100.00;100133.38;5017206;28;20049;-74
2023/10/25 07:03:30;;;;;;;26.00;24.02;;;;;;;19.83;100.00;100127.22;5028102;28;20064;-74
2023/10/25 07:06:02;;;;;;;24.35;22.75;;;;;;;19.68;100.00;100128.13;5021140;28;20446;-74
2023/10/25 07:08:30;;;;;;;24.40;22.70;;;;;;;19.53;100.00;100147.06;5029731;28;20887;-74
2023/10/25 07:10:57;;;;;;;23.88;22.48;;;;;;;19.80;100.00;100152.03;5016701;28;20085;-74
2023/10/25 07:13:26;;;;;;;24.88;23.48;;;;;;;19.72;100.00;100159.91;5037904;28;20442;-73
2023/10/25 07:15:53;;;;;;;22.67;21.33;;;;;;;19.71;100.00;100156.41;5020314;28;20502;-73
2023/10/25 07:18:20;;;;;;;24.30;22.90;;;;;;;19.86;100.00;100139.31;5023348;28;20125;-75
2023/10/25 07:20:50;;;;;;;24.73;23.20;;;;;;;19.85;100.00;100138.53;5012360;28;20720;-73
2023/10/25 07:23:17;;;;;;;26.15;24.42;;;;;;;19.72;100.00;100141.84;5027560;28;20042;-74
2023/10/25 07:25:44;;;;;;;24.35;22.95;;;;;;;19.76;100.00;100148.28;5019238;28;20057;-74
2023/10/25 07:28:11;;;;;;;25.33;23.90;;;;;;;19.54;100.00;100151.34;5029849;28;20060;-73
2023/10/25 07:30:38;;;;;;;30.20;28.17;;;;;;;19.32;100.00;100143.69;5018593;28;20054;-74
2023/10/25 07:33:06;;;;;;;31.77;30.02;;;;;;;19.53;100.00;100144.38;5021616;28;20052;-73
2023/10/25 07:35:33;;;;;;;28.67;27.08;;;;;;;19.33;100.00;100145.28;5029081;28;20069;-74
2023/10/25 07:38:04;;;;;;;26.38;24.98;;;;;;;19.56;100.00;100141.13;5016672;28;20445;-73
2023/10/25 07:40:31;;;;;;;28.52;27.02;;;;;;;19.78;100.00;100121.06;5020670;28;20499;-73
2023/10/25 07:42:58;;;;;;;26.52;25.23;;;;;;;19.74;100.00;100134.28;5024693;28;20521;-74
2023/10/25 07:45:24;;;;;;;25.85;24.45;;;;;;;19.48;100.00;100140.91;5020632;28;20060;-73
2023/10/25 07:47:51;;;;;;;25.55;23.42;;;;;;;19.65;100.00;100147.56;5016006;28;20141;-73
2023/10/25 07:50:20;;;;;;;22.55;21.20;;;;;;;19.62;100.00;100158.84;5017107;28;20057;-73
2023/10/25 07:52:48;;;;;;;25.48;23.98;;;;;;;19.86;100.00;100156.28;5029891;28;20132;-78
2023/10/25 07:55:16;;;;;;;26.70;25.30;;;;;;;20.07;100.00;100164.22;5029246;28;20076;-77
2023/10/25 07:57:43;;;;;;;30.63;29.02;;;;;;;19.99;100.00;100167.50;5019970;28;20060;-77
2023/10/25 08:00:11;;;;;;;26.75;25.02;;;;;;;20.17;100.00;100166.81;5027279;28;20434;-77
2023/10/25 08:02:44;;;;;;;23.52;22.23;;;;;;;20.09;100.00;100156.63;5034568;28;20438;-78
2023/10/25 08:05:11;;;;;;;26.98;25.58;;;;;;;20.25;100.00;100160.03;5011928;28;20539;-77
2023/10/25 08:07:37;;;;;;;27.80;25.98;;;;;;;20.40;100.00;100162.59;5025235;28;20053;-77
2023/10/25 08:10:06;;;;;;;26.38;24.80;;;;;;;20.35;100.00;100157.22;5020040;28;20515;-78
2023/10/25 08:12:36;;;;;;;37.33;35.05;;;;;;;20.18;100.00;100154.13;5019258;28;21965;-77
2023/10/25 08:15:07;;;;;;;42.10;39.17;;;;;;;20.55;100.00;100164.34;5009970;28;20081;-78
2023/10/25 08:17:34;;;;;;;21.98;20.67;;;;;;;20.68;100.00;100165.56;5010039;28;20096;-77
2023/10/25 08:20:01;;;;;;;36.30;23.50;;;;;;;20.88;100.00;100178.00;5028467;28;20450;-77
2023/10/25 08:22:28;;;;;;;25.60;23.88;;;;;;;20.98;100.00;100184.09;5034925;28;20425;-77
2023/10/25 08:24:54;;;;;;;27.08;25.58;;;;;;;21.21;100.00;100184.38;5030406;28;20061;-78
2023/10/25 08:27:21;;;;;;;24.23;22.50;;;;;;;21.38;100.00;100183.91;5028615;28;20408;-77
2023/10/25 08:29:49;;;;;;;25.83;24.33;;;;;;;21.46;100.00;100175.16;5030286;28;20048;-77
2023/10/25 08:32:16;;;;;;;25.45;24.05;;;;;;;21.71;100.00;100172.09;5020686;28;20064;-79
2023/10/25 08:34:48;;;;;;;25.58;24.17;;;;;;;21.59;100.00;100168.22;5023926;28;20515;-78
2023/10/25 08:37:15;;;;;;;28.75;27.23;;;;;;;21.84;100.00;100161.63;5016423;28;20057;-74
2023/10/25 08:39:43;;;;;;;27.85;25.95;;;;;;;22.14;100.00;100169.25;5020076;28;20041;-74
2023/10/25 08:42:13;;;;;;;28.15;26.45;;;;;;;22.05;100.00;100167.50;5025905;28;20049;-78
2023/10/25 08:44:41;;;;;;;24.15;22.75;;;;;;;21.82;100.00;100175.47;5021162;28;20050;-78
2023/10/25 08:47:12;;;;;;;26.20;24.80;;;;;;;22.20;100.00;100177.31;5026449;28;20061;-78
2023/10/25 08:50:00;;;;;;;27.33;25.80;;;;;;;22.61;100.00;100172.78;5023919;28;20558;-78
2023/10/25 08:52:37;;;;;;;24.23;22.73;;;;;;;22.86;100.00;100167.97;5022843;28;20435;-78
2023/10/25 08:55:08;;;;;;;24.92;23.30;;;;;;;23.60;100.00;100165.09;5028279;28;20053;-78
2023/10/25 08:57:37;;;;;;;25.75;24.25;;;;;;;23.64;100.00;100170.69;5020400;28;21334;-78
2023/10/25 09:00:07;;;;;;;25.15;23.55;;;;;;;23.89;100.00;100167.41;5018724;28;20053;-77
2023/10/25 09:02:45;;;;;;;23.42;21.92;;;;;;;23.44;100.00;100161.91;5023062;28;20187;-77
2023/10/25 09:05:12;;;;;;;21.85;20.35;;;;;;;24.00;100.00;100159.84;5024562;28;20430;-77
2023/10/25 09:07:39;;;;;;;21.77;20.38;;;;;;;23.45;100.00;100165.41;5035385;28;20053;-74
2023/10/25 09:10:13;;;;;;;37.92;20.58;;;;;;;24.31;100.00;100156.34;5040764;28;20045;-74
2023/10/25 09:12:39;;;;;;;21.92;19.60;;;;;;;24.07;100.00;100159.38;5043582;28;20128;-74
2023/10/25 09:15:08;;;;;;;21.50;20.05;;;;;;;24.95;100.00;100155.97;5026107;28;20136;-74
2023/10/25 09:17:35;;;;;;;22.25;20.75;;;;;;;25.28;100.00;100148.25;5016178;28;20123;-74
2023/10/25 09:20:09;;;;;;;23.77;21.27;;;;;;;24.71;100.00;100154.47;5019773;28;20430;-74
2023/10/25 09:22:36;;;;;;;22.35;20.85;;;;;;;25.03;99.72;100155.22;5021632;28;20046;-74
2023/10/25 09:25:16;;;;;;;23.50;21.90;;;;;;;24.87;99.40;100142.06;5026048;28;20049;-73
2023/10/25 09:27:43;;;;;;;22.70;21.10;;;;;;;25.35;92.13;100148.56;5017917;28;20050;-74
2023/10/25 09:30:15;;;;;;;23.50;21.75;;;;;;;26.25;83.19;100147.88;5031499;28;20111;-74
2023/10/25 09:32:44;;;;;;;22.88;21.27;;;;;;;25.05;90.54;100150.25;5022340;28;20064;-74
2023/10/25 09:35:13;;;;;;;23.75;22.15;;;;;;;24.47;99.74;100157.56;5023627;28;20045;-74
2023/10/25 09:37:40;;;;;;;28.33;22.70;;;;;;;25.22;87.80;100161.19;5019024;28;20049;-74
2023/10/25 09:40:10;;;;;;;21.05;19.55;;;;;;;25.06;89.01;100158.09;5031752;28;20045;-74
2023/10/25 09:42:44;;;;;;;22.52;21.02;;;;;;;24.08;99.78;100156.34;5026606;28;20045;-77
2023/10/25 09:45:16;;;;;;;22.33;20.92;;;;;;;24.15;99.75;100153.22;5025045;28;20140;-77
2023/10/25 09:47:48;;;;;;;23.25;21.55;;;;;;;24.00;100.00;100143.56;5026635;28;20061;-78
2023/10/25 09:50:31;;;;;;;23.90;22.40;;;;;;;24.87;98.09;100136.66;5026150;28;20073;-78
2023/10/25 09:53:05;;;;;;;23.35;21.75;;;;;;;24.81;97.45;100139.78;5027830;28;20045;-78
2023/10/25 09:55:34;;;;;;;25.90;24.10;;;;;;;24.75;95.91;100135.63;5036137;28;20049;-78
2023/10/25 09:58:11;;;;;;;23.27;21.88;;;;;;;24.52;98.94;100130.28;5020711;28;20427;-78
2023/10/25 10:00:38;;;;;;;22.90;21.50;;;;;;;24.78;96.99;100130.38;5020022;28;20049;-78
2023/10/25 10:03:14;;;;;;;25.70;24.10;;;;;;;24.68;95.93;100134.16;5025697;28;20442;-78
2023/10/25 10:05:51;;;;;;;27.88;25.45;;;;;;;24.98;97.88;100126.28;5034590;28;20050;-78
2023/10/25 10:08:22;;;;;;;27.23;25.63;;;;;;;24.97;98.85;100116.53;5028786;28;20056;-77
2023/10/25 10:10:53;;;;;;;30.13;28.05;;;;;;;24.92;91.64;100114.75;5018067;28;20050;-78
2023/10/25 10:13:21;;;;;;;29.40;27.47;;;;;;;25.47;90.62;100121.53;5022895;28;20056;-78
2023/10/25 10:16:01;;;;;;;26.00;24.40;;;;;;;25.17;95.38;100117.06;5032091;28;20049;-78
2023/10/25 10:18:31;;;;;;;27.20;25.60;;;;;;;26.35;78.82;100106.69;5026847;28;20052;-78
2023/10/25 10:21:04;;;;;;;28.63;26.92;;;;;;;25.55;88.07;100120.75;5029067;28;20640;-78
2023/10/25 10:23:49;;;;;;;29.83;28.00;;;;;;;25.70;88.66;100137.72;5028764;28;20049;-78
2023/10/25 10:26:48;;;;;;;28.05;26.45;;;;;;;25.34;91.34;100130.66;5024680;28;20078;-78
2023/10/25 10:29:40;;;;;;;26.85;25.13;;;;;;;26.63;80.47;100123.41;5027943;28;20056;-78
2023/10/25 10:32:09;;;;;;;28.10;26.40;;;;;;;24.32;98.77;100120.75;5012267;28;20053;-78
2023/10/25 10:34:42;;;;;;;28.10;26.40;;;;;;;24.19;98.69;100116.22;5025691;28;20692;-78
2023/10/25 10:37:12;;;;;;;27.10;25.58;;;;;;;25.67;85.95;100117.38;5027781;28;20416;-78
2023/10/25 10:40:12;;;;;;;31.25;29.45;;;;;;;24.93;94.00;100112.81;5015724;28;20482;-78
2023/10/25 10:42:40;;;;;;;26.70;25.10;;;;;;;24.92;93.90;100114.75;5024542;28;20438;-78
2023/10/25 10:45:10;;;;;;;30.70;28.48;;;;;;;25.42;87.50;100099.97;5029193;28;20054;-78
2023/10/25 10:47:41;;;;;;;25.25;23.75;;;;;;;25.34;86.88;100114.34;5024175;28;20048;-77
2023/10/25 10:50:12;;;;;;;32.42;23.52;;;;;;;25.08;85.94;100117.00;5021662;28;20048;-77
2023/10/25 10:52:44;;;;;;;27.60;24.45;;;;;;;25.24;88.57;100117.41;5024315;28;20049;-77
2023/10/25 10:55:16;;;;;;;27.42;25.83;;;;;;;25.44;86.06;100114.03;5027885;28;20438;-78
2023/10/25 10:57:58;;;;;;;27.27;25.67;;;;;;;25.58;84.44;100109.22;5036796;28;20057;-78
2023/10/25 11:00:26;;;;;;;38.78;23.45;;;;;;;24.29;97.96;100109.72;5030337;28;20045;-73
2023/10/25 11:02:54;;;;;;;25.70;24.10;;;;;;;24.54;98.63;100103.63;5030341;28;20057;-73
2023/10/25 11:05:22;;;;;;;24.77;22.45;;;;;;;24.16;97.32;100106.78;5027689;28;20045;-74
2023/10/25 11:07:52;;;;;;;25.67;23.98;;;;;;;24.58;95.42;100099.16;5026898;28;20076;-74
2023/10/25 11:10:19;;;;;;;31.80;22.70;;;;;;;24.31;97.48;100115.63;5029151;28;20060;-74
2023/10/25 11:12:46;;;;;;;23.00;21.50;;;;;;;24.56;95.81;100111.47;5018637;28;20077;-73